Time;durP1;ratioP1;P1;durP2;ratioP2;P2;SDS_P1;SDS_P2;PMS_P1;PMS_P2;Temp;Humidity;BMP_temperature;BMP_pressure;BME280_temperature;BME280_humidity;BME280_pressure;Samples;Min_cycle;Max_cycle;Signal;HPM_P1;HPM_P2
2023/05/09 00:01:13;;;;;;;40.97;19.63;;;10.10;99.90;;;;;;10101589;29;20209;-75
2023/05/09 00:06:53;;;;;;;36.63;19.00;;;9.90;99.90;;;;;;10122483;29;20584;-75
2023/05/09 00:12:15;;;;;;;46.00;20.20;;;9.80;99.90;;;;;;10133429;29;20201;-75
2023/05/09 00:17:37;;;;;;;42.17;20.77;;;9.70;1.00;;;;;;10089708;29;20237;-74
2023/05/09 00:22:58;;;;;;;36.57;18.87;;;9.60;1.00;;;;;;10102839;29;20545;-75
2023/05/09 00:28:19;;;;;;;40.40;18.53;;;9.50;1.00;;;;;;10108523;29;20194;-76
2023/05/09 00:33:40;;;;;;;38.33;18.97;;;9.50;1.00;;;;;;10101574;29;20209;-74
2023/05/09 00:39:01;;;;;;;43.50;18.20;;;9.50;1.00;;;;;;10089477;29;20216;-74
2023/05/09 00:44:22;;;;;;;30.80;16.20;;;9.40;1.00;;;;;;10085050;29;20209;-77
2023/05/09 00:49:43;;;;;;;28.97;13.73;;;9.40;1.00;;;;;;10116533;29;20583;-74
2023/05/09 00:55:07;;;;;;;30.20;13.63;;;9.30;1.00;;;;;;10116120;29;20629;-76
2023/05/09 01:00:28;;;;;;;28.97;12.67;;;9.30;1.00;;;;;;10096186;29;20217;-75
2023/05/09 01:06:09;;;;;;;23.60;12.00;;;9.20;1.00;;;;;;10111276;29;20499;-75
2023/05/09 01:11:55;;;;;;;22.27;11.40;;;9.20;1.00;;;;;;10088676;29;20202;-77
2023/05/09 01:17:45;;;;;;;25.00;12.40;;;9.10;1.00;;;;;;10087527;29;20580;-75
2023/05/09 01:23:34;;;;;;;25.40;11.97;;;9.10;1.00;;;;;;10072477;29;20254;-74
2023/05/09 01:29:14;;;;;;;30.17;12.50;;;9.00;11.30;;;;;;10072102;29;20261;-74
2023/05/09 01:34:37;;;;;;;25.80;11.83;;;8.90;52.30;;;;;;10094417;29;20554;-76
2023/05/09 01:40:13;;;;;;;24.57;11.73;;;8.90;90.60;;;;;;10099457;29;20220;-75
2023/05/09 01:45:35;;;;;;;25.70;12.13;;;8.80;99.90;;;;;;10106685;29;20506;-77
2023/05/09 01:50:58;;;;;;;25.87;11.40;;;8.80;99.90;;;;;;10112625;29;20204;-74
2023/05/09 01:56:21;;;;;;;32.20;14.73;;;8.70;99.90;;;;;;10083239;29;20240;-76
2023/05/09 02:01:43;;;;;;;28.23;13.07;;;8.60;99.90;;;;;;10113576;29;20393;-78
2023/05/09 02:07:05;;;;;;;20.80;11.07;;;8.60;99.90;;;;;;10100587;29;20207;-76
2023/05/09 02:12:27;;;;;;;25.07;10.00;;;8.50;99.90;;;;;;10107688;29;20323;-76
2023/05/09 02:17:48;;;;;;;19.90;9.70;;;8.40;99.90;;;;;;10114175;29;20293;-76
2023/05/09 02:23:10;;;;;;;19.40;9.70;;;8.40;99.90;;;;;;10085048;29;20208;-77
2023/05/09 02:28:33;;;;;;;15.57;8.43;;;8.30;99.90;;;;;;10082167;29;20220;-79
2023/05/09 02:33:55;;;;;;;15.13;9.47;;;8.30;99.90;;;;;;10077041;29;20213;-77
2023/05/09 02:39:17;;;;;;;19.30;10.50;;;8.20;1.00;;;;;;10092966;29;20562;-77
2023/05/09 02:44:38;;;;;;;17.50;10.20;;;8.10;1.00;;;;;;10087629;29;20392;-78
2023/05/09 02:49:59;;;;;;;20.23;9.97;;;8.10;99.90;;;;;;10101280;29;20327;-75
2023/05/09 02:55:21;;;;;;;21.07;10.13;;;8.10;99.90;;;;;;10111157;29;20537;-78
2023/05/09 03:00:42;;;;;;;15.80;8.80;;;8.00;99.90;;;;;;10122381;29;20291;-76
2023/05/09 03:06:05;;;;;;;19.53;8.97;;;8.00;99.90;;;;;;10118763;29;20221;-78
2023/05/09 03:11:26;;;;;;;15.33;8.83;;;7.90;99.90;;;;;;10107754;29;20209;-78
2023/05/09 03:16:47;;;;;;;15.13;8.97;;;7.90;99.90;;;;;;10109989;29;20263;-76
2023/05/09 03:22:17;;;;;;;14.07;8.13;;;7.90;1.00;;;;;;10104924;29;20260;-75
2023/05/09 03:27:50;;;;;;;15.10;8.47;;;7.90;1.00;;;;;;10107712;29;20212;-76
2023/05/09 03:33:11;;;;;;;15.30;8.50;;;7.80;1.00;;;;;;10140994;29;20240;-75
2023/05/09 03:38:32;;;;;;;12.03;8.17;;;7.70;1.00;;;;;;10136240;29;20834;-74
2023/05/09 03:43:54;;;;;;;15.53;9.20;;;7.80;1.00;;;;;;10108306;29;20224;-77
2023/05/09 03:49:15;;;;;;;14.30;8.40;;;7.70;1.00;;;;;;10093913;29;20441;-76
2023/05/09 03:54:37;;;;;;;15.27;9.37;;;7.80;1.00;;;;;;10095867;29;20554;-76
2023/05/09 03:59:59;;;;;;;21.37;11.33;;;7.90;1.00;;;;;;10098700;29;20212;-74
2023/05/09 04:05:20;;;;;;;21.60;12.13;;;7.90;1.00;;;;;;10104368;29;20469;-75
2023/05/09 04:10:42;;;;;;;17.87;11.30;;;8.10;1.00;;;;;;10110980;29;20207;-76
2023/05/09 04:16:03;;;;;;;18.80;12.03;;;8.10;1.00;;;;;;10102014;29;20236;-74
2023/05/09 04:21:32;;;;;;;18.63;12.60;;;8.20;1.00;;;;;;10094466;29;20301;-75
2023/05/09 04:26:56;;;;;;;21.17;11.77;;;8.30;1.00;;;;;;10095504;29;20216;-77
2023/05/09 04:32:21;;;;;;;22.20;12.93;;;8.50;1.00;;;;;;10097788;29;20243;-79
2023/05/09 04:37:43;;;;;;;23.57;14.13;;;8.60;99.90;;;;;;10096163;29;20300;-78
2023/05/09 04:43:05;;;;;;;19.03;12.87;;;8.80;99.90;;;;;;10118067;29;20412;-78
2023/05/09 04:48:26;;;;;;;15.10;11.40;;;9.00;99.90;;;;;;10089894;29;20287;-79
2023/05/09 04:53:47;;;;;;;19.07;11.90;;;9.10;99.90;;;;;;10085700;29;20212;-76
2023/05/09 04:59:11;;;;;;;21.93;11.83;;;9.30;99.90;;;;;;10094060;29;20228;-79
2023/05/09 05:04:33;;;;;;;18.07;11.30;;;9.50;80.60;;;;;;10118834;29;20210;-77
2023/05/09 05:09:55;;;;;;;20.00;11.47;;;9.60;34.60;;;;;;10106307;29;20212;-79
2023/05/09 05:15:18;;;;;;;22.43;11.07;;;9.80;1.00;;;;;;10081894;29;20230;-79
2023/05/09 05:20:41;;;;;;;20.00;11.13;;;10.00;1.00;;;;;;10077344;29;20217;-78
2023/05/09 05:26:04;;;;;;;19.80;11.17;;;10.20;1.00;;;;;;10101675;29;20240;-79
2023/05/09 05:31:27;;;;;;;16.37;8.97;;;10.40;1.00;;;;;;10091428;29;20406;-78
2023/05/09 05:36:48;;;;;;;16.57;8.13;;;10.40;1.00;;;;;;10084145;29;20437;-76
2023/05/09 05:42:10;;;;;;;12.20;6.67;;;10.70;1.00;;;;;;10111964;29;20205;-77
2023/05/09 05:47:33;;;;;;;11.07;6.53;;;10.90;1.00;;;;;;10088057;29;20214;-78
2023/05/09 05:52:54;;;;;;;12.98;6.70;;;11.10;1.00;;;;;;10106542;29;20231;-75
2023/05/09 05:58:16;;;;;;;7.75;5.30;;;11.40;1.00;;;;;;10109950;29;20464;-76
2023/05/09 06:03:38;;;;;;;10.55;6.20;;;11.70;1.00;;;;;;10073810;29;20218;-78
2023/05/09 06:08:59;;;;;;;10.95;6.05;;;12.00;1.00;;;;;;10078788;29;20509;-77
2023/05/09 06:14:21;;;;;;;10.30;5.72;;;12.50;1.00;;;;;;10090772;29;20238;-78
2023/05/09 06:19:42;;;;;;;9.88;4.75;;;13.10;1.00;;;;;;10070353;29;20257;-81
2023/05/09 06:25:04;;;;;;;11.68;6.18;;;13.70;1.00;;;;;;10097528;29;20211;-78
2023/05/09 06:30:26;;;;;;;8.90;4.90;;;14.30;1.00;;;;;;10106234;29;20328;-80
2023/05/09 06:35:47;;;;;;;9.20;4.90;;;14.90;1.00;;;;;;10084855;29;20231;-79
2023/05/09 06:41:10;;;;;;;21.75;12.82;;;15.60;1.00;;;;;;10089477;29;20215;-80
2023/05/09 06:46:31;;;;;;;5.53;3.88;;;16.40;1.00;;;;;;10089453;29;20259;-80
2023/05/09 06:51:52;;;;;;;16.85;3.63;;;16.70;99.90;;;;;;10083628;29;20362;-74
2023/05/09 06:57:13;;;;;;;6.03;3.58;;;17.00;99.90;;;;;;10117468;29;20244;-80
2023/05/09 07:02:34;;;;;;;9.00;3.92;;;17.70;99.90;;;;;;10112399;29;20281;-74
2023/05/09 07:07:55;;;;;;;6.95;3.28;;;18.00;99.90;;;;;;10096807;29;20226;-83
2023/05/09 07:13:17;;;;;;;4.63;2.97;;;18.10;99.90;;;;;;10116425;29;20376;-83
2023/05/09 07:18:38;;;;;;;8.40;3.25;;;18.40;99.90;;;;;;10074198;29;20271;-85
2023/05/09 07:23:59;;;;;;;5.22;3.83;;;19.00;99.90;;;;;;10085985;29;20261;-84
2023/05/09 07:29:21;;;;;;;10.50;3.20;;;19.30;99.90;;;;;;10082774;29;20317;-82
2023/05/09 07:34:42;;;;;;;6.30;3.58;;;19.30;99.90;;;;;;10098763;29;20213;-81
2023/05/09 07:40:04;;;;;;;6.45;3.70;;;19.60;99.90;;;;;;10067814;29;20210;-76
2023/05/09 07:45:26;;;;;;;4.68;3.50;;;19.90;99.90;;;;;;10093822;29;20391;-74
2023/05/09 07:50:47;;;;;;;19.92;3.45;;;20.20;99.90;;;;;;10089945;29;20225;-76
2023/05/09 07:56:09;;;;;;;8.77;5.28;;;20.20;99.90;;;;;;10104658;29;20236;-77
2023/05/09 08:01:30;;;;;;;4.63;2.90;;;20.80;99.90;;;;;;10106180;29;20214;-78
2023/05/09 08:06:51;;;;;;;3.63;2.08;;;20.90;99.90;;;;;;10113018;29;20209;-76
2023/05/09 08:12:12;;;;;;;6.38;3.13;;;21.20;99.90;;;;;;10117119;29;20250;-76
2023/05/09 08:17:33;;;;;;;3.88;2.60;;;21.30;99.90;;;;;;10113284;29;20236;-77
2023/05/09 08:22:54;;;;;;;3.88;2.90;;;21.50;99.90;;;;;;10119515;29;20226;-78
2023/05/09 08:28:15;;;;;;;4.95;3.30;;;21.60;99.90;;;;;;10090391;29;20218;-78
2023/05/09 08:33:36;;;;;;;2.47;2.28;;;22.30;99.90;;;;;;10088646;29;20205;-81
2023/05/09 08:38:58;;;;;;;3.17;2.40;;;22.20;99.90;;;;;;10090568;29;20233;-77
2023/05/09 08:44:22;;;;;;;7.03;2.85;;;22.20;99.90;;;;;;10087407;29;20205;-76
2023/05/09 08:49:44;;;;;;;11.13;2.78;;;22.70;99.90;;;;;;10108344;29;20244;-78
2023/05/09 08:55:06;;;;;;;3.30;2.47;;;22.90;99.90;;;;;;10100255;29;20314;-78
2023/05/09 09:00:28;;;;;;;7.88;2.78;;;22.90;99.90;;;;;;10086816;29;20400;-76
2023/05/09 09:05:50;;;;;;;4.20;3.40;;;23.10;99.90;;;;;;10080511;29;20206;-77
2023/05/09 09:11:13;;;;;;;5.93;2.90;;;22.70;99.90;;;;;;10112148;29;20218;-74
2023/05/09 09:16:35;;;;;;;6.40;2.53;;;22.70;99.90;;;;;;10105613;29;20238;-80
2023/05/09 09:22:01;;;;;;;7.53;3.33;;;22.60;99.90;;;;;;10095157;29;20470;-77
2023/05/09 09:27:22;;;;;;;15.68;3.00;;;22.80;99.90;;;;;;10102867;29;20289;-83
2023/05/09 09:32:43;;;;;;;4.18;2.40;;;22.80;99.90;;;;;;10081177;29;20252;-88
2023/05/09 09:38:05;;;;;;;6.30;2.67;;;22.90;99.90;;;;;;10097708;29;20544;-79
2023/05/09 09:43:28;;;;;;;4.32;2.95;;;23.10;99.90;;;;;;10136313;29;20197;-83
2023/05/09 09:48:53;;;;;;;5.38;2.70;;;23.70;99.90;;;;;;10108378;29;20235;-76
2023/05/09 09:54:15;;;;;;;6.30;2.55;;;23.60;99.90;;;;;;10077510;29;20234;-79
2023/05/09 09:59:36;;;;;;;4.45;2.03;;;23.60;99.90;;;;;;10091190;29;20241;-77
2023/05/09 10:05:06;;;;;;;6.65;2.58;;;24.10;99.90;;;;;;10110780;29;20273;-76
2023/05/09 10:10:28;;;;;;;7.10;2.95;;;23.80;99.90;;;;;;10107123;29;20230;-79
2023/05/09 10:15:50;;;;;;;6.28;2.67;;;23.70;99.90;;;;;;10109661;29;20339;-75
2023/05/09 10:21:14;;;;;;;6.20;2.60;;;23.50;99.90;;;;;;10078809;29;20449;-78
2023/05/09 10:26:41;;;;;;;3.28;2.40;;;23.50;99.90;;;;;;10100099;29;20217;-82
2023/05/09 10:32:10;;;;;;;5.00;2.65;;;23.90;99.90;;;;;;10096439;29;20267;-78
2023/05/09 10:37:31;;;;;;;4.50;2.58;;;23.60;99.90;;;;;;10109363;29;20480;-75
2023/05/09 10:42:53;;;;;;;6.15;2.55;;;23.70;99.90;;;;;;10106878;29;20282;-80
2023/05/09 10:48:15;;;;;;;12.77;2.28;;;23.90;99.90;;;;;;10124773;29;20251;-78
2023/05/09 10:53:42;;;;;;;7.70;2.60;;;23.20;99.90;;;;;;10070100;29;20271;-77
2023/05/09 10:59:03;;;;;;;4.85;2.40;;;23.50;99.90;;;;;;10110807;29;20254;-77
2023/05/09 11:04:24;;;;;;;23.35;3.42;;;23.80;99.90;;;;;;10115764;29;20226;-77
2023/05/09 11:10:08;;;;;;;3.58;2.10;;;24.30;99.90;;;;;;10114346;29;20202;-77
2023/05/09 11:15:29;;;;;;;18.48;2.97;;;24.30;99.90;;;;;;10077426;29;20521;-75
2023/05/09 11:20:50;;;;;;;4.65;2.45;;;23.90;99.90;;;;;;10092000;29;20525;-75
2023/05/09 11:26:14;;;;;;;12.80;2.00;;;24.10;99.90;;;;;;10094516;29;20281;-75
2023/05/09 11:32:04;;;;;;;7.90;2.40;;;24.30;99.90;;;;;;10114807;29;20254;-75
2023/05/09 11:37:30;;;;;;;5.90;2.38;;;23.50;99.90;;;;;;10113580;29;20221;-75
2023/05/09 11:42:54;;;;;;;2.80;2.00;;;23.50;99.90;;;;;;10127318;29;20607;-78
2023/05/09 11:48:21;;;;;;;9.18;2.17;;;23.60;99.90;;;;;;10104157;29;20529;-76
2023/05/09 11:53:45;;;;;;;2.70;2.00;;;23.40;99.90;;;;;;10112613;29;20202;-75
2023/05/09 11:59:07;;;;;;;3.67;2.10;;;22.60;99.90;;;;;;10106224;29;20226;-74
2023/05/09 12:04:29;;;;;;;4.07;3.17;;;22.90;99.90;;;;;;10114997;29;20468;-75
2023/05/09 12:09:51;;;;;;;3.40;2.40;;;23.00;99.90;;;;;;10122026;29;20201;-78
2023/05/09 12:15:13;;;;;;;9.75;3.97;;;23.20;99.90;;;;;;10099591;29;20202;-76
2023/05/09 12:20:42;;;;;;;9.60;2.70;;;23.10;99.90;;;;;;10107221;29;20217;-76
2023/05/09 12:26:03;;;;;;;11.75;2.38;;;22.80;99.90;;;;;;10108310;29;20214;-79
2023/05/09 12:31:24;;;;;;;5.95;1.85;;;22.70;99.90;;;;;;10083594;29;20444;-75
2023/05/09 12:36:52;;;;;;;3.33;1.88;;;22.70;99.90;;;;;;10111780;29;20249;-78
2023/05/09 12:42:13;;;;;;;9.52;2.75;;;22.60;99.90;;;;;;10104245;29;20253;-79
2023/05/09 12:47:37;;;;;;;10.05;2.60;;;22.90;99.90;;;;;;10086767;29;20213;-77
2023/05/09 12:53:03;;;;;;;11.00;2.60;;;22.70;99.90;;;;;;10106530;29;20251;-77
2023/05/09 12:58:29;;;;;;;3.85;2.28;;;22.70;99.90;;;;;;10111551;29;20325;-77
2023/05/09 13:03:52;;;;;;;7.25;2.03;;;22.70;99.90;;;;;;10094032;29;20290;-77
2023/05/09 13:09:13;;;;;;;3.13;2.20;;;22.70;99.90;;;;;;10108291;29;20265;-81
2023/05/09 13:14:35;;;;;;;2.95;2.08;;;22.30;99.90;;;;;;10099361;29;20549;-74
2023/05/09 13:19:56;;;;;;;3.65;2.00;;;22.50;99.90;;;;;;10107049;29;20238;-81
2023/05/09 13:25:19;;;;;;;4.57;2.20;;;22.60;99.90;;;;;;10099197;29;20214;-77
2023/05/09 13:30:40;;;;;;;6.63;2.75;;;22.00;99.90;;;;;;10111855;29;20237;-74
2023/05/09 13:36:01;;;;;;;5.80;2.42;;;21.90;99.90;;;;;;10113669;29;20225;-77
2023/05/09 13:41:22;;;;;;;5.63;2.55;;;21.60;99.90;;;;;;10132969;29;20297;-76
2023/05/09 13:46:44;;;;;;;6.90;2.17;;;21.30;99.90;;;;;;10151871;29;20205;-78
2023/05/09 13:52:06;;;;;;;3.80;2.40;;;21.30;99.90;;;;;;10121662;29;20240;-75
2023/05/09 13:57:27;;;;;;;3.35;2.33;;;21.00;99.90;;;;;;10107292;29;20225;-77
2023/05/09 14:02:48;;;;;;;8.20;3.95;;;20.80;99.90;;;;;;10107756;29;20213;-77
2023/05/09 14:08:09;;;;;;;5.15;3.10;;;20.80;99.90;;;;;;10109059;29;20399;-79
2023/05/09 14:13:31;;;;;;;4.55;2.10;;;20.80;99.90;;;;;;10065352;29;20519;-77
2023/05/09 14:18:52;;;;;;;39.50;18.90;;;20.50;99.90;;;;;;10101181;29;20261;-76
2023/05/09 14:24:13;;;;;;;4.35;2.83;;;20.40;99.90;;;;;;10111110;29;20427;-75
2023/05/09 14:29:38;;;;;;;7.22;2.25;;;20.40;99.90;;;;;;10110719;29;20297;-77
2023/05/09 14:35:00;;;;;;;5.72;2.38;;;20.10;99.90;;;;;;10106673;29;20205;-78
2023/05/09 14:40:21;;;;;;;3.08;2.70;;;19.80;99.90;;;;;;10129771;29;20237;-77
2023/05/09 14:45:42;;;;;;;3.00;2.33;;;19.90;99.90;;;;;;10121311;29;20209;-75
2023/05/09 14:51:03;;;;;;;10.07;2.60;;;19.80;99.90;;;;;;10116170;29;20265;-76
2023/05/09 14:56:25;;;;;;;9.18;2.50;;;19.50;99.90;;;;;;10118537;29;20245;-78
2023/05/09 15:01:46;;;;;;;5.43;2.60;;;19.40;99.90;;;;;;10140574;29;20212;-78
2023/05/09 15:07:08;;;;;;;9.10;2.67;;;19.20;99.90;;;;;;10115184;29;20236;-79
2023/05/09 15:12:30;;;;;;;4.53;2.75;;;19.10;99.90;;;;;;10120695;29;20258;-79
2023/05/09 15:17:52;;;;;;;3.15;2.53;;;18.90;99.90;;;;;;10116175;29;20226;-78
2023/05/09 15:23:12;;;;;;;4.10;2.53;;;18.80;99.90;;;;;;10106082;29;20197;-77
2023/05/09 15:28:34;;;;;;;9.75;2.42;;;18.70;99.90;;;;;;10083944;29;20267;-78
2023/05/09 15:33:55;;;;;;;6.53;2.50;;;18.50;99.90;;;;;;10088526;29;20230;-78
2023/05/09 15:39:16;;;;;;;8.20;2.80;;;18.50;99.90;;;;;;10102382;29;20232;-77
2023/05/09 15:44:38;;;;;;;9.45;3.22;;;18.60;99.90;;;;;;10121808;29;20190;-78
2023/05/09 15:50:00;;;;;;;6.22;3.38;;;18.50;99.90;;;;;;10115212;29;20436;-76
2023/05/09 15:55:21;;;;;;;2.85;2.25;;;18.40;99.90;;;;;;10122297;29;20484;-78
2023/05/09 16:00:44;;;;;;;8.40;2.63;;;18.40;99.90;;;;;;10121673;29;20244;-77
2023/05/09 16:06:05;;;;;;;9.98;3.58;;;18.40;99.90;;;;;;10121267;29;20229;-79
2023/05/09 16:11:26;;;;;;;3.70;2.30;;;18.30;99.90;;;;;;10112217;29;20509;-78
2023/05/09 16:16:49;;;;;;;4.13;3.00;;;18.20;99.90;;;;;;10120563;29;20424;-79
2023/05/09 16:22:10;;;;;;;16.40;3.63;;;18.20;99.90;;;;;;10083651;29;20294;-78
2023/05/09 16:27:32;;;;;;;5.00;3.20;;;18.20;99.90;;;;;;10082622;29;20194;-78
2023/05/09 16:32:53;;;;;;;3.22;2.78;;;18.10;99.90;;;;;;10092901;29;20270;-79
2023/05/09 16:38:14;;;;;;;9.52;2.92;;;18.30;99.90;;;;;;10120571;29;20246;-77
2023/05/09 16:43:35;;;;;;;8.25;3.28;;;18.00;99.90;;;;;;10119069;29;20205;-78
2023/05/09 16:48:56;;;;;;;6.25;3.58;;;17.80;99.90;;;;;;10119645;29;20373;-78
2023/05/09 16:54:17;;;;;;;5.53;3.45;;;17.60;99.90;;;;;;10105783;29;20277;-77
2023/05/09 16:59:38;;;;;;;7.03;3.15;;;17.50;99.90;;;;;;10117839;29;20232;-77
2023/05/09 17:04:59;;;;;;;4.95;3.13;;;17.40;99.90;;;;;;10119528;29;20212;-77
2023/05/09 17:10:20;;;;;;;8.25;3.58;;;17.30;99.90;;;;;;10119661;29;20544;-78
2023/05/09 17:15:41;;;;;;;11.55;4.57;;;17.40;99.90;;;;;;10118637;29;20217;-77
2023/05/09 17:21:03;;;;;;;6.97;4.18;;;17.20;99.90;;;;;;10119324;29;20200;-78
2023/05/09 17:26:24;;;;;;;6.55;3.58;;;17.10;99.90;;;;;;10118752;29;20201;-77
2023/05/09 17:31:45;;;;;;;10.00;3.95;;;16.90;99.90;;;;;;10130481;29;20237;-79
2023/05/09 17:37:07;;;;;;;5.18;2.78;;;16.80;99.90;;;;;;10118168;29;20452;-75
2023/05/09 17:42:29;;;;;;;6.45;2.97;;;16.60;99.90;;;;;;10118281;29;20220;-79
2023/05/09 17:47:50;;;;;;;5.70;2.95;;;16.50;99.90;;;;;;10117830;29;20219;-79
2023/05/09 17:53:11;;;;;;;9.38;3.47;;;16.40;99.90;;;;;;10118391;29;20234;-75
2023/05/09 17:58:32;;;;;;;4.85;3.15;;;16.30;99.90;;;;;;10117930;29;20307;-77
2023/05/09 18:03:53;;;;;;;5.53;3.53;;;16.20;99.90;;;;;;10095726;29;20384;-79
2023/05/09 18:09:15;;;;;;;6.55;4.20;;;16.10;99.90;;;;;;10118573;29;20205;-77
2023/05/09 18:14:37;;;;;;;14.32;4.10;;;16.10;99.90;;;;;;10086589;29;20236;-78
2023/05/09 18:19:58;;;;;;;7.20;3.30;;;15.90;99.90;;;;;;10117624;29;20272;-75
2023/05/09 18:25:20;;;;;;;5.97;4.30;;;16.00;99.90;;;;;;10117517;29;20197;-79
2023/05/09 18:30:41;;;;;;;10.57;5.13;;;15.90;99.90;;;;;;10116758;29;20246;-78
2023/05/09 18:36:02;;;;;;;8.35;3.83;;;15.90;99.90;;;;;;10116160;29;20209;-78
2023/05/09 18:41:24;;;;;;;8.20;3.38;;;15.70;99.90;;;;;;10116754;29;20201;-78
2023/05/09 18:46:45;;;;;;;8.55;4.80;;;15.70;99.90;;;;;;10116311;29;20198;-76
2023/05/09 18:52:08;;;;;;;7.35;5.28;;;15.60;99.90;;;;;;10116798;29;20200;-78
2023/05/09 18:57:29;;;;;;;5.88;3.20;;;15.50;99.90;;;;;;10116753;29;20250;-79
2023/05/09 19:02:50;;;;;;;4.20;3.25;;;15.40;99.90;;;;;;10115531;29;20510;-79
2023/05/09 19:08:12;;;;;;;7.85;3.30;;;15.30;99.90;;;;;;10115743;29;20565;-78
2023/05/09 19:13:36;;;;;;;5.70;3.65;;;15.20;99.90;;;;;;10128659;29;20224;-79
2023/05/09 19:18:58;;;;;;;8.35;4.40;;;15.10;99.90;;;;;;10101495;29;20279;-77
2023/05/09 19:24:18;;;;;;;9.73;5.15;;;15.00;99.90;;;;;;10122633;29;20212;-79
2023/05/09 19:29:39;;;;;;;15.50;6.35;;;14.90;99.90;;;;;;10123026;29;20246;-76
2023/05/09 19:35:00;;;;;;;11.25;6.38;;;14.80;99.90;;;;;;10122134;29;20205;-77
2023/05/09 19:40:21;;;;;;;10.93;6.75;;;14.70;99.90;;;;;;10121312;29;20238;-77
2023/05/09 19:45:43;;;;;;;11.68;6.70;;;14.60;99.90;;;;;;10122522;29;20217;-76
2023/05/09 19:51:04;;;;;;;11.40;6.57;;;14.50;99.90;;;;;;10121440;29;20567;-77
2023/05/09 19:56:26;;;;;;;11.35;6.38;;;14.40;99.90;;;;;;10122420;29;20226;-77
2023/05/09 20:01:47;;;;;;;11.70;5.93;;;14.20;99.90;;;;;;10120725;29;20218;-76
2023/05/09 20:07:08;;;;;;;10.93;5.43;;;14.20;99.90;;;;;;10120833;29;20220;-77
2023/05/09 20:12:29;;;;;;;16.23;5.22;;;14.10;99.90;;;;;;10121689;29;20274;-79
2023/05/09 20:17:50;;;;;;;10.25;5.50;;;14.00;99.90;;;;;;10119622;29;20283;-76
2023/05/09 20:23:11;;;;;;;10.32;6.15;;;14.00;99.90;;;;;;10106874;29;20501;-76
2023/05/09 20:28:33;;;;;;;11.23;5.55;;;13.90;99.90;;;;;;10106901;29;20288;-76
2023/05/09 20:33:54;;;;;;;10.68;5.95;;;13.80;99.90;;;;;;10118572;29;20219;-78
2023/05/09 20:39:16;;;;;;;8.77;6.05;;;13.60;99.90;;;;;;10120099;29;20611;-75
2023/05/09 20:44:38;;;;;;;16.45;6.35;;;13.50;99.90;;;;;;10120628;29;20283;-77
2023/05/09 20:49:59;;;;;;;17.20;6.22;;;13.40;99.90;;;;;;10130786;29;20209;-77
2023/05/09 20:55:20;;;;;;;8.65;5.80;;;13.20;99.90;;;;;;10120593;29;20204;-75
2023/05/09 21:00:41;;;;;;;14.55;5.38;;;13.30;99.90;;;;;;10120288;29;20592;-75
2023/05/09 21:06:02;;;;;;;8.02;5.00;;;13.20;99.90;;;;;;10120512;29;20218;-77
2023/05/09 21:11:24;;;;;;;10.75;6.38;;;13.00;99.90;;;;;;10129472;29;20197;-77
2023/05/09 21:16:45;;;;;;;12.50;6.93;;;12.90;99.90;;;;;;10117468;29;20215;-77
2023/05/09 21:22:06;;;;;;;12.20;6.50;;;13.00;1.00;;;;;;10079472;29;20238;-79
2023/05/09 21:27:30;;;;;;;12.85;6.65;;;12.80;99.90;;;;;;10080572;29;20223;-78
2023/05/09 21:32:51;;;;;;;11.40;6.40;;;12.70;99.90;;;;;;10090298;29;20432;-77
2023/05/09 21:38:13;;;;;;;11.77;6.53;;;12.60;99.90;;;;;;10117848;29;20226;-77
2023/05/09 21:43:34;;;;;;;14.00;7.10;;;12.50;99.90;;;;;;10118129;29;20280;-78
2023/05/09 21:48:56;;;;;;;12.07;6.40;;;12.30;99.90;;;;;;10116614;29;20427;-76
2023/05/09 21:54:17;;;;;;;10.93;6.40;;;12.30;99.90;;;;;;10130443;29;20529;-77
2023/05/09 21:59:38;;;;;;;12.68;6.43;;;12.10;99.90;;;;;;10116650;29;20306;-77
2023/05/09 22:04:59;;;;;;;9.32;6.07;;;12.00;99.90;;;;;;10098543;29;20210;-77
2023/05/09 22:10:20;;;;;;;9.18;5.70;;;12.00;99.90;;;;;;10112195;29;20214;-75
2023/05/09 22:15:41;;;;;;;12.00;5.93;;;12.00;99.90;;;;;;10091995;29;20204;-77
2023/05/09 22:21:03;;;;;;;9.40;5.60;;;11.90;99.90;;;;;;10116523;29;20412;-77
2023/05/09 22:26:24;;;;;;;7.75;5.28;;;11.90;99.90;;;;;;10116251;29;20254;-76
2023/05/09 22:31:48;;;;;;;10.13;5.40;;;11.80;99.90;;;;;;10116387;29;20242;-78
2023/05/09 22:37:09;;;;;;;7.22;4.75;;;11.70;99.90;;;;;;10116089;29;20236;-76
2023/05/09 22:42:30;;;;;;;13.38;5.13;;;11.70;99.90;;;;;;10117018;29;20208;-76
2023/05/09 22:47:51;;;;;;;11.93;5.53;;;11.60;99.90;;;;;;10114626;29;20282;-78
2023/05/09 22:53:12;;;;;;;10.63;6.22;;;;;;;;;;10117033;29;20207;-77
2023/05/09 22:58:34;;;;;;;10.98;5.97;;;11.60;1.00;;;;;;10107057;29;20308;-77
2023/05/09 23:03:55;;;;;;;9.63;6.05;;;11.50;1.00;;;;;;10123842;29;20357;-78
2023/05/09 23:09:16;;;;;;;9.43;5.75;;;11.40;1.00;;;;;;10124143;29;20198;-78
2023/05/09 23:14:37;;;;;;;8.77;6.35;;;11.30;1.00;;;;;;10108889;29;20289;-78
2023/05/09 23:19:59;;;;;;;10.52;5.78;;;11.30;3.20;;;;;;10123964;29;20267;-77
2023/05/09 23:25:20;;;;;;;11.82;5.40;;;11.10;99.90;;;;;;10123710;29;20194;-78
2023/05/09 23:30:41;;;;;;;10.23;5.50;;;11.00;99.90;;;;;;10122669;29;20286;-78
2023/05/09 23:36:02;;;;;;;8.43;5.30;;;10.90;99.90;;;;;;10122213;29;20194;-78
2023/05/09 23:41:23;;;;;;;11.40;5.60;;;10.80;99.90;;;;;;10122930;29;20249;-77
2023/05/09 23:46:44;;;;;;;9.77;5.87;;;10.70;99.90;;;;;;10115788;29;20296;-78
2023/05/09 23:52:08;;;;;;;8.47;4.77;;;10.60;99.90;;;;;;10121521;29;20209;-77
2023/05/09 23:57:29;;;;;;;9.63;5.33;;;10.60;99.90;;;;;;10107296;29;20309;-78
